KLM001 EHAM-EDDH
Flight info
| Callsign | KLM001 |
|---|---|
| Flight time | N/A |
| Altitude | 18000 |
| Route | ANDIK M105 RIBSO RIBSO7A |
| Aircraft | A20N/M-SDE2E3FGHIRWXY/LB1 |
Departure
| Time | 2026-05-07 19:12 |
|---|---|
| Airport | Amsterdam Airport Schiphol (EHAM) |
Arrival
| Time | N/A |
|---|---|
| Airport | Hamburg Helmut Schmidt Airport (EDDH) |
| Time | Latitude | Longitude | Altitude | Speed | Heading |
|---|---|---|---|---|---|
| 2026-05-07 18:16 | 52.29394 | 4.75933 | -1 ft | 0 kts | 147° |
| 2026-05-07 18:46 | 52.29394 | 4.75932 | -1 ft | 0 kts | 147° |
| 2026-05-07 18:46 | 52.29396 | 4.75931 | -1 ft | 2 kts | 147° |
| 2026-05-07 18:46 | 52.29410 | 4.75916 | -1 ft | 2 kts | 146° |
| 2026-05-07 18:47 | 52.29424 | 4.75901 | -1 ft | 2 kts | 148° |
| 2026-05-07 18:47 | 52.29439 | 4.75890 | -1 ft | 2 kts | 210° |
| 2026-05-07 18:47 | 52.29442 | 4.75893 | -1 ft | 0 kts | 229° |
| 2026-05-07 18:52 | 52.29451 | 4.75904 | -1 ft | 2 kts | 200° |
| 2026-05-07 18:52 | 52.29467 | 4.75909 | -1 ft | 2 kts | 175° |
| 2026-05-07 18:53 | 52.29483 | 4.75905 | -2 ft | 2 kts | 167° |
| 2026-05-07 18:53 | 52.29499 | 4.75899 | -2 ft | 2 kts | 176° |
| 2026-05-07 18:53 | 52.29510 | 4.75901 | -2 ft | 1 kts | 223° |
| 2026-05-07 18:53 | 52.29511 | 4.75901 | -2 ft | 0 kts | 227° |
| 2026-05-07 18:56 | 52.29510 | 4.75900 | -2 ft | 0 kts | 231° |
| 2026-05-07 18:57 | 52.29510 | 4.75898 | -2 ft | 0 kts | 237° |
| 2026-05-07 18:57 | 52.29500 | 4.75862 | -2 ft | 6 kts | 244° |
| 2026-05-07 18:57 | 52.29481 | 4.75775 | -2 ft | 9 kts | 249° |
| 2026-05-07 18:57 | 52.29457 | 4.75703 | -3 ft | 5 kts | 229° |
| 2026-05-07 18:58 | 52.29452 | 4.75688 | -3 ft | 1 kts | 243° |
| 2026-05-07 18:58 | 52.29451 | 4.75685 | -3 ft | 0 kts | 243° |
| 2026-05-07 18:58 | 52.29451 | 4.75683 | -3 ft | 0 kts | 244° |
| 2026-05-07 18:59 | 52.29449 | 4.75675 | -4 ft | 1 kts | 246° |
| 2026-05-07 18:59 | 52.29443 | 4.75654 | -4 ft | 2 kts | 246° |
| 2026-05-07 18:59 | 52.29438 | 4.75635 | -4 ft | 0 kts | 246° |
| 2026-05-07 19:01 | 52.29437 | 4.75626 | -4 ft | 2 kts | 255° |
| 2026-05-07 19:01 | 52.29437 | 4.75595 | -4 ft | 4 kts | 277° |
| 2026-05-07 19:01 | 52.29453 | 4.75545 | -4 ft | 6 kts | 308° |
| 2026-05-07 19:01 | 52.29471 | 4.75519 | -4 ft | 1 kts | 326° |
| 2026-05-07 19:02 | 52.29476 | 4.75514 | -4 ft | 0 kts | 325° |
| 2026-05-07 19:02 | 52.29498 | 4.75489 | -5 ft | 8 kts | 325° |
| 2026-05-07 19:03 | 52.29562 | 4.75418 | -4 ft | 12 kts | 329° |
| 2026-05-07 19:03 | 52.29622 | 4.75362 | -1 ft | 8 kts | 329° |
| 2026-05-07 19:03 | 52.29660 | 4.75324 | -1 ft | 5 kts | 326° |
| 2026-05-07 19:03 | 52.29688 | 4.75296 | -1 ft | 4 kts | 333° |
| 2026-05-07 19:04 | 52.29708 | 4.75283 | -1 ft | 2 kts | 339° |
| 2026-05-07 19:04 | 52.29717 | 4.75278 | -1 ft | 1 kts | 346° |
| 2026-05-07 19:04 | 52.29748 | 4.75274 | 0 ft | 8 kts | 355° |
| 2026-05-07 19:04 | 52.29819 | 4.75249 | 2 ft | 10 kts | 320° |
| 2026-05-07 19:05 | 52.29847 | 4.75193 | 0 ft | 10 kts | 307° |
| 2026-05-07 19:05 | 52.29897 | 4.75092 | -3 ft | 12 kts | 311° |
| 2026-05-07 19:05 | 52.29953 | 4.74991 | -1 ft | 10 kts | 312° |
| 2026-05-07 19:05 | 52.29986 | 4.74927 | 1 ft | 6 kts | 309° |
| 2026-05-07 19:06 | 52.30011 | 4.74878 | 2 ft | 6 kts | 311° |
| 2026-05-07 19:06 | 52.30115 | 4.74686 | 8 ft | 16 kts | 310° |
| 2026-05-07 19:06 | 52.30194 | 4.74547 | 9 ft | 13 kts | 307° |
| 2026-05-07 19:07 | 52.30258 | 4.74419 | 0 ft | 18 kts | 311° |
| 2026-05-07 19:07 | 52.30314 | 4.74305 | 4 ft | 11 kts | 307° |
| 2026-05-07 19:07 | 52.30336 | 4.74247 | 2 ft | 1 kts | 270° |
| 2026-05-07 19:07 | 52.30336 | 4.74246 | 2 ft | 0 kts | 272° |
| 2026-05-07 19:08 | 52.30339 | 4.74229 | 4 ft | 3 kts | 286° |
| 2026-05-07 19:08 | 52.30343 | 4.74172 | 0 ft | 5 kts | 267° |
| 2026-05-07 19:08 | 52.30333 | 4.74101 | 1 ft | 7 kts | 251° |
| 2026-05-07 19:08 | 52.30312 | 4.74043 | 0 ft | 6 kts | 233° |
| 2026-05-07 19:09 | 52.30281 | 4.73997 | -1 ft | 7 kts | 222° |
| 2026-05-07 19:09 | 52.30247 | 4.73945 | -3 ft | 6 kts | 222° |
| 2026-05-07 19:09 | 52.30227 | 4.73922 | -4 ft | 2 kts | 217° |
| 2026-05-07 19:09 | 52.30222 | 4.73916 | -4 ft | 1 kts | 218° |
| 2026-05-07 19:10 | 52.30208 | 4.73896 | -4 ft | 2 kts | 221° |
| 2026-05-07 19:10 | 52.30195 | 4.73858 | -4 ft | 5 kts | 250° |
| 2026-05-07 19:10 | 52.30199 | 4.73806 | -3 ft | 8 kts | 287° |
| 2026-05-07 19:10 | 52.30284 | 4.73737 | -7 ft | 23 kts | 355° |
| 2026-05-07 19:11 | 52.30353 | 4.73741 | -7 ft | 0 kts | 3° |
| 2026-05-07 19:11 | 52.30458 | 4.73752 | -4 ft | 54 kts | 3° |
| 2026-05-07 19:11 | 52.31155 | 4.73811 | -2 ft | 145 kts | 3° |
| 2026-05-07 19:11 | 52.32422 | 4.73883 | 276 ft | 212 kts | 3° |
| 2026-05-07 19:12 | 52.34027 | 4.74029 | 811 ft | 229 kts | 15° |
| 2026-05-07 19:12 | 52.35237 | 4.75382 | 1659 ft | 204 kts | 64° |
| 2026-05-07 19:12 | 52.35387 | 4.77608 | 2629 ft | 210 kts | 111° |
| 2026-05-07 19:12 | 52.34442 | 4.79496 | 3555 ft | 226 kts | 142° |
| 2026-05-07 19:13 | 52.33214 | 4.81232 | 4524 ft | 241 kts | 125° |
| 2026-05-07 19:13 | 52.32361 | 4.83682 | 5577 ft | 255 kts | 117° |
| 2026-05-07 19:13 | 52.31622 | 4.86355 | 6737 ft | 265 kts | 114° |
| 2026-05-07 19:13 | 52.30938 | 4.89197 | 7945 ft | 272 kts | 111° |
| 2026-05-07 19:14 | 52.30283 | 4.92210 | 8408 ft | 292 kts | 110° |
| 2026-05-07 19:14 | 52.29613 | 4.95583 | 8776 ft | 333 kts | 108° |
| 2026-05-07 19:14 | 52.28890 | 4.99441 | 8958 ft | 377 kts | 107° |
| 2026-05-07 19:14 | 52.28137 | 5.03632 | 9034 ft | 384 kts | 107° |
| 2026-05-07 19:15 | 52.27402 | 5.07827 | 9299 ft | 385 kts | 106° |
| 2026-05-07 19:15 | 52.26673 | 5.12052 | 10105 ft | 388 kts | 106° |
| 2026-05-07 19:15 | 52.25942 | 5.16344 | 10551 ft | 395 kts | 106° |
| 2026-05-07 19:15 | 52.25244 | 5.20690 | 10851 ft | 398 kts | 103° |
| 2026-05-07 19:16 | 52.24723 | 5.25141 | 10977 ft | 400 kts | 99° |
| 2026-05-07 19:16 | 52.24318 | 5.29634 | 11032 ft | 400 kts | 98° |
| 2026-05-07 19:16 | 52.23985 | 5.34140 | 11058 ft | 401 kts | 96° |
| 2026-05-07 19:16 | 52.23700 | 5.38657 | 11069 ft | 400 kts | 96° |
| 2026-05-07 19:17 | 52.23450 | 5.43178 | 11071 ft | 400 kts | 95° |
| 2026-05-07 19:17 | 52.23171 | 5.47696 | 11066 ft | 400 kts | 99° |
| 2026-05-07 19:17 | 52.22531 | 5.52109 | 11074 ft | 400 kts | 106° |
| 2026-05-07 19:17 | 52.21715 | 5.56441 | 11073 ft | 400 kts | 108° |
| 2026-05-07 19:18 | 52.20817 | 5.60730 | 11076 ft | 400 kts | 109° |
| 2026-05-07 19:18 | 52.19870 | 5.64993 | 11078 ft | 400 kts | 110° |
| 2026-05-07 19:18 | 52.18895 | 5.69231 | 11073 ft | 400 kts | 111° |
| 2026-05-07 19:18 | 52.17897 | 5.73466 | 11076 ft | 400 kts | 111° |
| 2026-05-07 19:19 | 52.16886 | 5.77694 | 11074 ft | 400 kts | 111° |
| 2026-05-07 19:19 | 52.15869 | 5.81913 | 11075 ft | 400 kts | 111° |
| 2026-05-07 19:19 | 52.14848 | 5.86124 | 11074 ft | 401 kts | 112° |
| 2026-05-07 19:19 | 52.13821 | 5.90348 | 11072 ft | 401 kts | 112° |
| 2026-05-07 19:20 | 52.12794 | 5.94564 | 11071 ft | 400 kts | 111° |
| 2026-05-07 19:20 | 52.11766 | 5.98787 | 11073 ft | 401 kts | 111° |
| 2026-05-07 19:20 | 52.10812 | 6.03052 | 11068 ft | 401 kts | 104° |
| 2026-05-07 19:20 | 52.10723 | 6.07545 | 11071 ft | 400 kts | 80° |
| 2026-05-07 19:21 | 52.11724 | 6.11671 | 11073 ft | 399 kts | 56° |
| 2026-05-07 19:21 | 52.13658 | 6.14847 | 11080 ft | 397 kts | 34° |
| 2026-05-07 19:21 | 52.16010 | 6.17191 | 11077 ft | 396 kts | 28° |
| 2026-05-07 19:21 | 52.18431 | 6.19360 | 11081 ft | 397 kts | 27° |
| 2026-05-07 19:22 | 52.20858 | 6.21493 | 11082 ft | 396 kts | 27° |
| 2026-05-07 19:22 | 52.23274 | 6.23631 | 11085 ft | 396 kts | 27° |
| 2026-05-07 19:22 | 52.25691 | 6.25809 | 11086 ft | 397 kts | 28° |
| 2026-05-07 19:22 | 52.28094 | 6.28023 | 11090 ft | 396 kts | 29° |
| 2026-05-07 19:23 | 52.30479 | 6.30271 | 11089 ft | 396 kts | 29° |
| 2026-05-07 19:23 | 52.32859 | 6.32561 | 11093 ft | 397 kts | 30° |
| 2026-05-07 19:23 | 52.35232 | 6.34883 | 11092 ft | 396 kts | 30° |
| 2026-05-07 19:23 | 52.37590 | 6.37225 | 11091 ft | 397 kts | 31° |
| 2026-05-07 19:24 | 52.39942 | 6.39592 | 11091 ft | 397 kts | 31° |
| 2026-05-07 19:24 | 52.42295 | 6.41981 | 11092 ft | 396 kts | 31° |
| 2026-05-07 19:24 | 52.44634 | 6.44374 | 11090 ft | 396 kts | 31° |
| 2026-05-07 19:24 | 52.46938 | 6.46749 | 11097 ft | 396 kts | 32° |
| 2026-05-07 19:25 | 52.49270 | 6.49169 | 11095 ft | 397 kts | 32° |
| 2026-05-07 19:25 | 52.51598 | 6.51593 | 11097 ft | 396 kts | 32° |
| 2026-05-07 19:25 | 52.53925 | 6.54027 | 11100 ft | 397 kts | 32° |
| 2026-05-07 19:25 | 52.56247 | 6.56463 | 11095 ft | 396 kts | 32° |
| 2026-05-07 19:26 | 52.58570 | 6.58906 | 11099 ft | 396 kts | 32° |
| 2026-05-07 19:26 | 52.60898 | 6.61361 | 11099 ft | 397 kts | 32° |
| 2026-05-07 19:26 | 52.63218 | 6.63814 | 11098 ft | 396 kts | 32° |
| 2026-05-07 19:26 | 52.65538 | 6.66272 | 11102 ft | 397 kts | 32° |
| 2026-05-07 19:27 | 52.67859 | 6.68738 | 11105 ft | 397 kts | 32° |
| 2026-05-07 19:27 | 52.70176 | 6.71204 | 11103 ft | 396 kts | 32° |
| 2026-05-07 19:27 | 52.72488 | 6.73668 | 11112 ft | 396 kts | 32° |
| 2026-05-07 19:27 | 52.74807 | 6.76144 | 11109 ft | 396 kts | 32° |
| 2026-05-07 19:28 | 52.77124 | 6.78619 | 11101 ft | 396 kts | 33° |
| 2026-05-07 19:28 | 52.79440 | 6.81098 | 11192 ft | 396 kts | 33° |
| 2026-05-07 19:28 | 52.81727 | 6.83550 | 11763 ft | 398 kts | 33° |
| 2026-05-07 19:28 | 52.84061 | 6.86059 | 12784 ft | 402 kts | 33° |
| 2026-05-07 19:29 | 52.86427 | 6.88605 | 13871 ft | 409 kts | 32° |
| 2026-05-07 19:29 | 52.88851 | 6.91218 | 14864 ft | 415 kts | 32° |
| 2026-05-07 19:29 | 52.91266 | 6.93818 | 15415 ft | 419 kts | 32° |
| 2026-05-07 19:29 | 52.93729 | 6.96473 | 15775 ft | 425 kts | 33° |
| 2026-05-07 19:30 | 52.96213 | 6.99154 | 15970 ft | 427 kts | 33° |
| 2026-05-07 19:30 | 52.98704 | 7.01848 | 16045 ft | 427 kts | 33° |
| 2026-05-07 19:30 | 53.01200 | 7.04553 | 16079 ft | 427 kts | 33° |
| 2026-05-07 19:30 | 53.03688 | 7.07252 | 16094 ft | 426 kts | 33° |
| 2026-05-07 19:31 | 53.06167 | 7.09947 | 16099 ft | 426 kts | 33° |
| 2026-05-07 19:31 | 53.08648 | 7.12649 | 16103 ft | 426 kts | 33° |
| 2026-05-07 19:31 | 53.11077 | 7.15472 | 16098 ft | 426 kts | 41° |
| 2026-05-07 19:31 | 53.12916 | 7.19316 | 16104 ft | 426 kts | 58° |
| 2026-05-07 19:32 | 53.14308 | 7.23679 | 16113 ft | 427 kts | 64° |
| 2026-05-07 19:32 | 53.15486 | 7.28212 | 16115 ft | 426 kts | 68° |
| 2026-05-07 19:32 | 53.16514 | 7.32844 | 16117 ft | 426 kts | 71° |
| 2026-05-07 19:32 | 53.17459 | 7.37537 | 16090 ft | 427 kts | 72° |
| 2026-05-07 19:33 | 53.18359 | 7.42223 | 15613 ft | 422 kts | 72° |
| 2026-05-07 19:33 | 53.19225 | 7.46841 | 14886 ft | 423 kts | 73° |
| 2026-05-07 19:33 | 53.20087 | 7.51486 | 14518 ft | 418 kts | 72° |
| 2026-05-07 19:33 | 53.20949 | 7.56099 | 14296 ft | 415 kts | 72° |
| 2026-05-07 19:34 | 53.21820 | 7.60700 | 14201 ft | 415 kts | 72° |
| 2026-05-07 19:34 | 53.22694 | 7.65289 | 14155 ft | 415 kts | 72° |
| 2026-05-07 19:34 | 53.23573 | 7.69886 | 14128 ft | 415 kts | 72° |
| 2026-05-07 19:34 | 53.24451 | 7.74468 | 14118 ft | 415 kts | 72° |
| 2026-05-07 19:35 | 53.25330 | 7.79058 | 14115 ft | 415 kts | 72° |
| 2026-05-07 19:35 | 53.26208 | 7.83643 | 13951 ft | 412 kts | 72° |
| 2026-05-07 19:35 | 53.27414 | 7.87938 | 13071 ft | 407 kts | 54° |
| 2026-05-07 19:35 | 53.29471 | 7.91094 | 12032 ft | 405 kts | 31° |
| 2026-05-07 19:36 | 53.31930 | 7.93269 | 11629 ft | 397 kts | 26° |
| 2026-05-07 19:36 | 53.34427 | 7.95233 | 11331 ft | 395 kts | 24° |
| 2026-05-07 19:36 | 53.36926 | 7.97120 | 11202 ft | 394 kts | 24° |
| 2026-05-07 19:36 | 53.39440 | 7.98983 | 11151 ft | 395 kts | 24° |
| 2026-05-07 19:37 | 53.41928 | 8.00810 | 11123 ft | 394 kts | 23° |
| 2026-05-07 19:37 | 53.44447 | 8.02653 | 11117 ft | 394 kts | 23° |
| 2026-05-07 19:37 | 53.46848 | 8.04407 | 11106 ft | 358 kts | 23° |
| 2026-05-07 19:37 | 53.49032 | 8.06003 | 11107 ft | 327 kts | 23° |
| 2026-05-07 19:38 | 53.51040 | 8.07472 | 11104 ft | 305 kts | 23° |
| 2026-05-07 19:38 | 53.52984 | 8.08895 | 11105 ft | 306 kts | 23° |
| 2026-05-07 19:38 | 53.54931 | 8.10322 | 11105 ft | 305 kts | 23° |
| 2026-05-07 19:38 | 53.56874 | 8.11748 | 11107 ft | 305 kts | 23° |
| 2026-05-07 19:39 | 53.58819 | 8.13177 | 11109 ft | 305 kts | 23° |
| 2026-05-07 19:39 | 53.60763 | 8.14607 | 11109 ft | 304 kts | 23° |
| 2026-05-07 19:39 | 53.62703 | 8.16035 | 11108 ft | 304 kts | 23° |
| 2026-05-07 19:39 | 53.63989 | 8.16982 | 11110 ft | 304 kts | 23° |
| 2026-05-07 19:40 | 53.66588 | 8.18900 | 11108 ft | 305 kts | 23° |
| 2026-05-07 19:40 | 53.68528 | 8.20334 | 11105 ft | 304 kts | 23° |
| 2026-05-07 19:40 | 53.70466 | 8.21767 | 11108 ft | 304 kts | 23° |
| 2026-05-07 19:40 | 53.72408 | 8.23204 | 11110 ft | 305 kts | 23° |
| 2026-05-07 19:41 | 53.74351 | 8.24644 | 11107 ft | 304 kts | 23° |
| 2026-05-07 19:41 | 53.76288 | 8.26081 | 11109 ft | 304 kts | 23° |
| 2026-05-07 19:41 | 53.78233 | 8.27523 | 11107 ft | 305 kts | 23° |
| 2026-05-07 19:41 | 53.80173 | 8.28963 | 11110 ft | 304 kts | 23° |
| 2026-05-07 19:42 | 53.82112 | 8.30402 | 11110 ft | 304 kts | 23° |
| 2026-05-07 19:42 | 53.84026 | 8.31825 | 11110 ft | 305 kts | 23° |